Terminal Aerodrome Forecast
Issued by NWS

Home | Current Version | Previous Version | Text Only | Print | Product List | Glossary Off
Versions: 1 2 3 4 5 6 7 8 9 10 11 12 13 14 15 16 17 18 19 20 21 22

000
FTUS43 KABR 201100
TAFPIR
TAF
KPIR 201121Z 2012/2112 15008KT P6SM SCT080 SCT250
     FM201600 14012KT P6SM VCSH BKN080
      TEMPO 2022/2102 TS BKN050CB
     FM210400 14006KT P6SM SKC=

USA.gov is the U.S. government's official web portal to all federal, state and local government web resources and services.